Observations for VALLEY RAF, United Kingdom (EGOV)

EGOV 200550Z AUTO 27003KT 9999 FEW120/// 11/07 Q1031
EGOV 200450Z AUTO 12003KT 9999 BKN110/// 11/06 Q1031
EGOV 200350Z AUTO 07003KT 9999 SCT110/// 12/06 Q1031
EGOV 200250Z AUTO 07002KT 9999 SCT120/// 12/07 Q1031
EGOV 200150Z AUTO 34001KT 9999 FEW110/// BKN140/// 13/08 Q1031  
EGOV 200050Z AUTO 33003KT 9999 BKN110/// OVC140/// 14/07 Q1031  
EGOV 192350Z AUTO 07003KT 9999 FEW110/// OVC140/// 14/05 Q1031  
EGOV 192250Z AUTO 06004KT 9999 OVC140/// 15/06 Q1031
EGOV 192150Z AUTO 07004KT 9999 OVC140/// 15/07 Q1031
EGOV 192050Z AUTO 07003KT 9999 OVC130/// 15/07 Q1031
EGOV 191950Z AUTO 08004KT 9999 OVC130/// 17/07 Q1030
EGOV 191850Z AUTO 03003KT 9999 OVC130/// 18/09 Q1030
EGOV 191750Z AUTO 34003KT 9999 BKN140/// 19/08 Q1030
EGOV 191650Z AUTO 35004KT 9999 FEW130/// 20/07 Q1029
EGOV 191550Z AUTO 34006KT 9999 NCD 20/06 Q1029  
EGOV 191450Z AUTO 30005KT 9999 NCD 22/07 Q1029  
EGOV 191350Z AUTO 23008KT 9999 NCD 21/05 Q1029  
EGOV 191250Z AUTO 22007KT 9999 NCD 21/06 Q1029  
EGOV 191150Z AUTO 21006KT 9999 NCD 21/04 Q1029  
EGOV 191050Z AUTO 17003KT 9999 NCD 21/09 Q1029  
EGOV 190950Z AUTO 05004KT 9999 NCD 19/08 Q1029  
EGOV 190850Z AUTO 07005KT 9999 NCD 18/08 Q1028  
EGOV 190750Z AUTO 05004KT 9999 NCD 14/08 Q1028  
EGOV 190650Z AUTO 05006KT 9999 NCD 11/06 Q1028  
EGOV 190550Z AUTO 05005KT 9999 NCD 09/06 Q1027